sensor_id;sensor_type;location;lat;lon;timestamp;pressure;altitude;pressure_sealevel;temperature;humidity
7376;BME280;3728;42.266;24.944;2023-02-16T00:00:26;100949.72;;;2.77;74.40
7376;BME280;3728;42.266;24.944;2023-02-16T00:02:54;100950.28;;;2.79;74.65
7376;BME280;3728;42.266;24.944;2023-02-16T00:05:32;100955.44;;;2.79;74.52
7376;BME280;3728;42.266;24.944;2023-02-16T00:08:00;100956.88;;;2.75;74.61
7376;BME280;3728;42.266;24.944;2023-02-16T00:10:33;100945.38;;;2.71;74.78
7376;BME280;3728;42.266;24.944;2023-02-16T00:13:17;100949.63;;;2.65;74.31
7376;BME280;3728;42.266;24.944;2023-02-16T00:16:15;100957.31;;;2.47;74.55
7376;BME280;3728;42.266;24.944;2023-02-16T00:18:47;100954.53;;;2.49;74.52
7376;BME280;3728;42.266;24.944;2023-02-16T00:21:16;100954.25;;;2.32;75.67
7376;BME280;3728;42.266;24.944;2023-02-16T00:23:44;100946.81;;;2.18;76.45
7376;BME280;3728;42.266;24.944;2023-02-16T00:26:16;100942.16;;;2.01;75.44
7376;BME280;3728;42.266;24.944;2023-02-16T00:28:49;100953.22;;;2.08;74.83
7376;BME280;3728;42.266;24.944;2023-02-16T00:31:21;100951.69;;;2.01;75.09
7376;BME280;3728;42.266;24.944;2023-02-16T00:33:53;100947.56;;;1.93;75.80
7376;BME280;3728;42.266;24.944;2023-02-16T00:36:22;100947.63;;;1.80;76.08
7376;BME280;3728;42.266;24.944;2023-02-16T00:38:50;100949.06;;;1.76;76.61
7376;BME280;3728;42.266;24.944;2023-02-16T00:41:22;100942.06;;;1.77;76.26
7376;BME280;3728;42.266;24.944;2023-02-16T00:44:19;100946.22;;;1.84;76.34
7376;BME280;3728;42.266;24.944;2023-02-16T00:46:49;100943.13;;;1.69;75.73
7376;BME280;3728;42.266;24.944;2023-02-16T00:49:18;100946.63;;;1.37;76.95
7376;BME280;3728;42.266;24.944;2023-02-16T00:51:48;100947.44;;;1.37;76.80
7376;BME280;3728;42.266;24.944;2023-02-16T00:54:16;100940.09;;;1.41;77.72
7376;BME280;3728;42.266;24.944;2023-02-16T00:56:44;100942.56;;;1.10;78.67
7376;BME280;3728;42.266;24.944;2023-02-16T00:59:18;100936.78;;;1.21;78.80
7376;BME280;3728;42.266;24.944;2023-02-16T01:01:47;100936.59;;;1.16;78.18
7376;BME280;3728;42.266;24.944;2023-02-16T01:04:21;100938.78;;;1.12;78.72
7376;BME280;3728;42.266;24.944;2023-02-16T01:06:49;100939.97;;;1.16;78.34
7376;BME280;3728;42.266;24.944;2023-02-16T01:09:35;100932.06;;;1.05;79.04
7376;BME280;3728;42.266;24.944;2023-02-16T01:12:21;100938.44;;;0.96;78.48
7376;BME280;3728;42.266;24.944;2023-02-16T01:14:52;100936.84;;;0.95;78.77
7376;BME280;3728;42.266;24.944;2023-02-16T01:17:22;100920.59;;;0.88;79.90
7376;BME280;3728;42.266;24.944;2023-02-16T01:19:52;100931.31;;;0.78;80.59
7376;BME280;3728;42.266;24.944;2023-02-16T01:22:20;100937.84;;;0.81;80.34
7376;BME280;3728;42.266;24.944;2023-02-16T01:24:48;100931.91;;;0.87;79.98
7376;BME280;3728;42.266;24.944;2023-02-16T01:27:16;100926.75;;;0.80;80.73
7376;BME280;3728;42.266;24.944;2023-02-16T01:29:44;100925.91;;;0.99;80.81
7376;BME280;3728;42.266;24.944;2023-02-16T01:32:13;100920.16;;;1.04;80.26
7376;BME280;3728;42.266;24.944;2023-02-16T01:34:41;100917.81;;;0.96;80.41
7376;BME280;3728;42.266;24.944;2023-02-16T01:37:29;100931.13;;;0.80;81.15
7376;BME280;3728;42.266;24.944;2023-02-16T01:39:56;100927.38;;;0.69;82.16
7376;BME280;3728;42.266;24.944;2023-02-16T01:42:40;100932.13;;;0.79;81.62
7376;BME280;3728;42.266;24.944;2023-02-16T01:45:19;100927.56;;;0.74;81.52
7376;BME280;3728;42.266;24.944;2023-02-16T01:47:55;100917.47;;;0.73;81.71
7376;BME280;3728;42.266;24.944;2023-02-16T01:50:43;100929.16;;;0.75;81.68
7376;BME280;3728;42.266;24.944;2023-02-16T01:53:30;100929.94;;;0.76;80.65
7376;BME280;3728;42.266;24.944;2023-02-16T02:01:56;100922.44;;;0.48;82.03
7376;BME280;3728;42.266;24.944;2023-02-16T02:04:43;100925.41;;;0.51;81.15
7376;BME280;3728;42.266;24.944;2023-02-16T02:11:08;100927.97;;;0.58;83.13
7376;BME280;3728;42.266;24.944;2023-02-16T02:16:27;100920.81;;;0.80;82.40
7376;BME280;3728;42.266;24.944;2023-02-16T02:18:55;100917.22;;;0.94;81.21
7376;BME280;3728;42.266;24.944;2023-02-16T02:34:06;100923.41;;;0.40;84.48
7376;BME280;3728;42.266;24.944;2023-02-16T02:36:40;100927.19;;;0.38;85.31
7376;BME280;3728;42.266;24.944;2023-02-16T02:39:29;100921.66;;;0.34;85.49
7376;BME280;3728;42.266;24.944;2023-02-16T02:45:07;100927.59;;;0.41;84.51
7376;BME280;3728;42.266;24.944;2023-02-16T02:47:44;100925.81;;;0.35;84.10
7376;BME280;3728;42.266;24.944;2023-02-16T02:53:11;100929.56;;;0.26;85.89
7376;BME280;3728;42.266;24.944;2023-02-16T02:55:45;100925.19;;;0.27;85.16
7376;BME280;3728;42.266;24.944;2023-02-16T02:58:35;100926.81;;;0.34;85.37
7376;BME280;3728;42.266;24.944;2023-02-16T03:01:22;100932.94;;;0.20;85.07
7376;BME280;3728;42.266;24.944;2023-02-16T03:03:52;100929.19;;;0.23;84.58
7376;BME280;3728;42.266;24.944;2023-02-16T03:06:25;100934.72;;;0.13;85.32
7376;BME280;3728;42.266;24.944;2023-02-16T03:09:03;100934.53;;;0.21;85.40
7376;BME280;3728;42.266;24.944;2023-02-16T03:11:34;100932.94;;;0.27;83.75
7376;BME280;3728;42.266;24.944;2023-02-16T03:14:35;100942.44;;;0.26;83.55
7376;BME280;3728;42.266;24.944;2023-02-16T03:17:15;100929.38;;;0.34;84.04
7376;BME280;3728;42.266;24.944;2023-02-16T03:20:05;100937.50;;;0.25;84.78
7376;BME280;3728;42.266;24.944;2023-02-16T03:22:54;100939.06;;;0.19;84.96
7376;BME280;3728;42.266;24.944;2023-02-16T03:25:41;100935.13;;;0.23;85.87
7376;BME280;3728;42.266;24.944;2023-02-16T03:28:28;100931.53;;;0.24;84.88
7376;BME280;3728;42.266;24.944;2023-02-16T03:31:20;100929.16;;;0.10;85.79
7376;BME280;3728;42.266;24.944;2023-02-16T03:33:52;100924.41;;;0.26;85.09
7376;BME280;3728;42.266;24.944;2023-02-16T03:36:22;100929.38;;;0.21;84.84
7376;BME280;3728;42.266;24.944;2023-02-16T03:38:53;100925.22;;;0.07;85.93
7376;BME280;3728;42.266;24.944;2023-02-16T03:41:21;100921.25;;;0.05;86.15
7376;BME280;3728;42.266;24.944;2023-02-16T03:43:49;100929.94;;;0.04;86.92
7376;BME280;3728;42.266;24.944;2023-02-16T03:46:17;100933.13;;;0.12;85.42
7376;BME280;3728;42.266;24.944;2023-02-16T03:48:45;100939.28;;;0.11;85.83
7376;BME280;3728;42.266;24.944;2023-02-16T03:51:12;100934.09;;;-0.09;85.87
7376;BME280;3728;42.266;24.944;2023-02-16T03:53:40;100927.53;;;-0.11;86.64
7376;BME280;3728;42.266;24.944;2023-02-16T03:56:07;100932.09;;;-0.07;85.69
7376;BME280;3728;42.266;24.944;2023-02-16T03:58:35;100927.16;;;-0.08;85.78
7376;BME280;3728;42.266;24.944;2023-02-16T04:01:03;100923.63;;;-0.01;85.97
7376;BME280;3728;42.266;24.944;2023-02-16T04:03:31;100923.81;;;0.18;84.05
7376;BME280;3728;42.266;24.944;2023-02-16T04:05:59;100922.97;;;-0.22;84.28
7376;BME280;3728;42.266;24.944;2023-02-16T04:08:27;100921.19;;;-0.15;84.73
7376;BME280;3728;42.266;24.944;2023-02-16T04:10:54;100925.13;;;-0.26;86.02
7376;BME280;3728;42.266;24.944;2023-02-16T04:13:23;100928.31;;;-0.24;86.02
7376;BME280;3728;42.266;24.944;2023-02-16T04:15:51;100912.03;;;-0.37;86.09
7376;BME280;3728;42.266;24.944;2023-02-16T04:18:18;100922.50;;;-0.45;86.90
7376;BME280;3728;42.266;24.944;2023-02-16T04:20:46;100919.56;;;-0.36;86.40
7376;BME280;3728;42.266;24.944;2023-02-16T04:23:13;100923.13;;;-0.30;87.06
7376;BME280;3728;42.266;24.944;2023-02-16T04:25:41;100921.19;;;-0.22;86.70
7376;BME280;3728;42.266;24.944;2023-02-16T04:28:08;100924.09;;;-0.44;87.74
7376;BME280;3728;42.266;24.944;2023-02-16T04:30:36;100922.59;;;-0.13;87.59
7376;BME280;3728;42.266;24.944;2023-02-16T04:33:03;100929.72;;;-0.08;87.29
7376;BME280;3728;42.266;24.944;2023-02-16T04:35:31;100929.94;;;-0.10;86.40
7376;BME280;3728;42.266;24.944;2023-02-16T04:37:58;100935.25;;;-0.11;86.30
7376;BME280;3728;42.266;24.944;2023-02-16T04:40:26;100936.84;;;-0.17;85.97
7376;BME280;3728;42.266;24.944;2023-02-16T04:42:55;100932.69;;;-0.11;85.34
7376;BME280;3728;42.266;24.944;2023-02-16T04:45:22;100932.47;;;-0.23;85.45
7376;BME280;3728;42.266;24.944;2023-02-16T04:47:50;100930.09;;;-0.31;85.50
7376;BME280;3728;42.266;24.944;2023-02-16T04:50:18;100942.78;;;-0.16;85.77
7376;BME280;3728;42.266;24.944;2023-02-16T04:52:45;100936.81;;;-0.23;84.45
7376;BME280;3728;42.266;24.944;2023-02-16T04:55:13;100936.59;;;-0.28;84.04
7376;BME280;3728;42.266;24.944;2023-02-16T04:57:40;100933.88;;;-0.14;81.46
7376;BME280;3728;42.266;24.944;2023-02-16T05:00:09;100937.16;;;-0.46;82.00
7376;BME280;3728;42.266;24.944;2023-02-16T05:02:37;100933.97;;;-0.54;82.38
7376;BME280;3728;42.266;24.944;2023-02-16T05:05:05;100945.25;;;-0.42;83.06
7376;BME280;3728;42.266;24.944;2023-02-16T05:07:33;100944.28;;;-0.89;83.43
7376;BME280;3728;42.266;24.944;2023-02-16T05:10:02;100944.28;;;-0.89;85.07
7376;BME280;3728;42.266;24.944;2023-02-16T05:12:31;100938.16;;;-0.88;85.37
7376;BME280;3728;42.266;24.944;2023-02-16T05:15:17;100948.59;;;-0.96;86.88
7376;BME280;3728;42.266;24.944;2023-02-16T05:17:45;100956.19;;;-0.81;86.99
7376;BME280;3728;42.266;24.944;2023-02-16T05:20:12;100950.25;;;-0.82;87.69
7376;BME280;3728;42.266;24.944;2023-02-16T05:22:40;100955.84;;;-0.72;87.95
7376;BME280;3728;42.266;24.944;2023-02-16T05:25:09;100954.81;;;-0.77;87.61
7376;BME280;3728;42.266;24.944;2023-02-16T05:27:36;100959.63;;;-0.68;87.69
7376;BME280;3728;42.266;24.944;2023-02-16T05:30:04;100949.69;;;-0.71;88.40
7376;BME280;3728;42.266;24.944;2023-02-16T05:32:32;100963.00;;;-0.60;88.04
7376;BME280;3728;42.266;24.944;2023-02-16T05:34:59;100968.59;;;-0.50;87.14
7376;BME280;3728;42.266;24.944;2023-02-16T05:37:27;100970.97;;;-0.49;86.84
7376;BME280;3728;42.266;24.944;2023-02-16T05:39:54;100978.13;;;-0.44;86.90
7376;BME280;3728;42.266;24.944;2023-02-16T05:42:22;100981.69;;;-0.45;87.10
7376;BME280;3728;42.266;24.944;2023-02-16T05:44:49;100974.25;;;-0.21;86.20
7376;BME280;3728;42.266;24.944;2023-02-16T05:47:17;100982.38;;;-0.24;85.36
7376;BME280;3728;42.266;24.944;2023-02-16T05:49:44;100984.09;;;-0.37;86.10
7376;BME280;3728;42.266;24.944;2023-02-16T05:52:12;100983.91;;;-0.36;86.43
7376;BME280;3728;42.266;24.944;2023-02-16T05:54:39;100983.88;;;-0.42;85.89
7376;BME280;3728;42.266;24.944;2023-02-16T05:57:08;100984.53;;;-0.27;86.36
7376;BME280;3728;42.266;24.944;2023-02-16T05:59:36;100992.69;;;-0.11;86.52
7376;BME280;3728;42.266;24.944;2023-02-16T06:02:03;100992.72;;;-0.04;85.33
7376;BME280;3728;42.266;24.944;2023-02-16T06:04:31;100995.50;;;0.08;85.72
7376;BME280;3728;42.266;24.944;2023-02-16T06:06:58;100992.38;;;0.19;86.54
7376;BME280;3728;42.266;24.944;2023-02-16T06:09:26;100986.44;;;0.31;86.29
7376;BME280;3728;42.266;24.944;2023-02-16T06:11:54;100993.59;;;0.36;85.77
7376;BME280;3728;42.266;24.944;2023-02-16T06:14:21;100998.34;;;0.32;86.36
7376;BME280;3728;42.266;24.944;2023-02-16T06:16:49;101001.72;;;0.52;86.94
7376;BME280;3728;42.266;24.944;2023-02-16T06:19:18;100997.78;;;0.63;86.36
7376;BME280;3728;42.266;24.944;2023-02-16T06:21:46;101003.53;;;0.85;85.78
7376;BME280;3728;42.266;24.944;2023-02-16T06:24:14;101013.63;;;1.06;85.65
7376;BME280;3728;42.266;24.944;2023-02-16T06:26:42;101027.28;;;1.19;84.91
7376;BME280;3728;42.266;24.944;2023-02-16T06:29:09;101027.84;;;1.34;84.26
7376;BME280;3728;42.266;24.944;2023-02-16T06:31:37;101025.03;;;1.49;83.82
7376;BME280;3728;42.266;24.944;2023-02-16T06:34:05;101027.91;;;1.72;83.61
7376;BME280;3728;42.266;24.944;2023-02-16T06:36:33;101024.50;;;1.85;83.47
7376;BME280;3728;42.266;24.944;2023-02-16T06:39:01;101026.81;;;1.99;83.77
7376;BME280;3728;42.266;24.944;2023-02-16T06:41:29;101025.81;;;2.00;83.23
7376;BME280;3728;42.266;24.944;2023-02-16T06:44:01;101036.03;;;2.20;83.06
7376;BME280;3728;42.266;24.944;2023-02-16T06:46:32;101033.94;;;2.42;83.53
7376;BME280;3728;42.266;24.944;2023-02-16T06:49:00;101026.19;;;2.42;84.14
7376;BME280;3728;42.266;24.944;2023-02-16T06:51:28;101030.66;;;2.53;83.78
7376;BME280;3728;42.266;24.944;2023-02-16T06:53:56;101027.53;;;2.75;83.68
7376;BME280;3728;42.266;24.944;2023-02-16T06:56:24;101025.81;;;2.88;83.07
7376;BME280;3728;42.266;24.944;2023-02-16T06:58:52;101031.94;;;2.93;83.44
7376;BME280;3728;42.266;24.944;2023-02-16T07:01:22;101038.63;;;3.62;80.26
7376;BME280;3728;42.266;24.944;2023-02-16T07:03:52;101041.66;;;3.77;80.12
7376;BME280;3728;42.266;24.944;2023-02-16T07:06:23;101048.91;;;3.68;79.70
7376;BME280;3728;42.266;24.944;2023-02-16T07:08:58;101051.09;;;3.53;80.67
7376;BME280;3728;42.266;24.944;2023-02-16T07:11:26;101048.84;;;3.38;82.69
7376;BME280;3728;42.266;24.944;2023-02-16T07:13:53;101047.56;;;3.29;82.39
7376;BME280;3728;42.266;24.944;2023-02-16T07:16:21;101044.25;;;3.40;81.41
7376;BME280;3728;42.266;24.944;2023-02-16T07:18:49;101049.72;;;3.69;79.61
7376;BME280;3728;42.266;24.944;2023-02-16T07:21:17;101038.22;;;3.94;79.24
7376;BME280;3728;42.266;24.944;2023-02-16T07:23:44;101049.69;;;4.05;78.75
7376;BME280;3728;42.266;24.944;2023-02-16T07:26:12;101052.38;;;4.10;78.59
7376;BME280;3728;42.266;24.944;2023-02-16T07:28:40;101047.94;;;4.29;77.69
7376;BME280;3728;42.266;24.944;2023-02-16T07:31:13;101043.50;;;4.47;76.77
7376;BME280;3728;42.266;24.944;2023-02-16T07:33:43;101046.88;;;4.48;77.42
7376;BME280;3728;42.266;24.944;2023-02-16T07:36:12;101044.22;;;4.66;76.83
7376;BME280;3728;42.266;24.944;2023-02-16T07:38:43;101043.72;;;4.57;76.44
7376;BME280;3728;42.266;24.944;2023-02-16T07:41:11;101044.78;;;4.68;76.24
7376;BME280;3728;42.266;24.944;2023-02-16T07:43:39;101044.91;;;4.73;76.84
7376;BME280;3728;42.266;24.944;2023-02-16T07:46:08;101045.25;;;5.11;75.93
7376;BME280;3728;42.266;24.944;2023-02-16T07:48:36;101045.34;;;5.39;73.78
7376;BME280;3728;42.266;24.944;2023-02-16T07:51:04;101045.91;;;5.53;72.36
7376;BME280;3728;42.266;24.944;2023-02-16T07:53:32;101042.00;;;5.79;71.38
7376;BME280;3728;42.266;24.944;2023-02-16T07:56:00;101044.22;;;5.98;70.90
7376;BME280;3728;42.266;24.944;2023-02-16T07:58:27;101044.41;;;6.08;69.97
7376;BME280;3728;42.266;24.944;2023-02-16T08:01:08;101046.16;;;6.19;69.10
7376;BME280;3728;42.266;24.944;2023-02-16T08:03:39;101051.25;;;6.26;69.98
7376;BME280;3728;42.266;24.944;2023-02-16T08:06:07;101046.19;;;6.36;68.67
7376;BME280;3728;42.266;24.944;2023-02-16T08:08:35;101043.94;;;6.40;68.92
7376;BME280;3728;42.266;24.944;2023-02-16T08:11:09;101042.34;;;6.39;69.83
7376;BME280;3728;42.266;24.944;2023-02-16T08:13:38;101049.72;;;6.58;70.49
7376;BME280;3728;42.266;24.944;2023-02-16T08:16:07;101045.69;;;6.84;68.22
7376;BME280;3728;42.266;24.944;2023-02-16T08:18:45;101045.72;;;7.22;65.34
7376;BME280;3728;42.266;24.944;2023-02-16T08:21:15;101049.44;;;7.26;66.80
7376;BME280;3728;42.266;24.944;2023-02-16T08:23:46;101048.69;;;7.31;66.40
7376;BME280;3728;42.266;24.944;2023-02-16T08:26:22;101047.56;;;7.43;65.43
7376;BME280;3728;42.266;24.944;2023-02-16T08:28:51;101049.09;;;7.83;61.91
7376;BME280;3728;42.266;24.944;2023-02-16T08:31:21;101049.31;;;8.03;61.18
7376;BME280;3728;42.266;24.944;2023-02-16T08:33:52;101051.19;;;8.07;62.18
7376;BME280;3728;42.266;24.944;2023-02-16T08:36:22;101048.81;;;8.27;60.75
7376;BME280;3728;42.266;24.944;2023-02-16T08:38:52;101046.88;;;8.45;67.07
7376;BME280;3728;42.266;24.944;2023-02-16T08:41:22;101047.75;;;8.55;66.12
7376;BME280;3728;42.266;24.944;2023-02-16T08:43:54;101052.78;;;8.62;64.54
7376;BME280;3728;42.266;24.944;2023-02-16T08:46:22;101051.34;;;8.81;62.85
7376;BME280;3728;42.266;24.944;2023-02-16T08:48:50;101049.34;;;9.35;61.89
7376;BME280;3728;42.266;24.944;2023-02-16T08:51:21;101050.50;;;9.59;60.42
7376;BME280;3728;42.266;24.944;2023-02-16T08:53:49;101056.31;;;9.71;57.92
7376;BME280;3728;42.266;24.944;2023-02-16T08:56:18;101060.31;;;9.99;56.41
7376;BME280;3728;42.266;24.944;2023-02-16T08:59:05;101050.97;;;10.13;57.42
7376;BME280;3728;42.266;24.944;2023-02-16T09:01:32;101052.03;;;10.22;55.93
7376;BME280;3728;42.266;24.944;2023-02-16T09:04:01;101052.03;;;10.32;55.82
7376;BME280;3728;42.266;24.944;2023-02-16T09:06:29;101051.00;;;10.28;56.07
7376;BME280;3728;42.266;24.944;2023-02-16T09:08:56;101047.75;;;9.96;56.66
7376;BME280;3728;42.266;24.944;2023-02-16T09:11:24;101050.47;;;10.31;56.04
7376;BME280;3728;42.266;24.944;2023-02-16T09:13:53;101039.75;;;10.48;55.76
7376;BME280;3728;42.266;24.944;2023-02-16T09:16:22;101046.03;;;10.72;56.36
7376;BME280;3728;42.266;24.944;2023-02-16T09:18:50;101048.13;;;10.80;54.54
7376;BME280;3728;42.266;24.944;2023-02-16T09:21:20;101033.38;;;11.14;52.25
7376;BME280;3728;42.266;24.944;2023-02-16T09:23:53;101039.47;;;10.84;54.65
7376;BME280;3728;42.266;24.944;2023-02-16T09:26:24;101033.44;;;10.99;54.41
7376;BME280;3728;42.266;24.944;2023-02-16T09:28:54;101037.50;;;11.45;51.28
7376;BME280;3728;42.266;24.944;2023-02-16T09:31:30;101031.25;;;11.26;52.26
7376;BME280;3728;42.266;24.944;2023-02-16T09:34:02;101028.00;;;11.70;49.12
7376;BME280;3728;42.266;24.944;2023-02-16T09:36:36;101023.44;;;11.16;48.92
7376;BME280;3728;42.266;24.944;2023-02-16T09:39:04;101026.56;;;11.23;50.96
7376;BME280;3728;42.266;24.944;2023-02-16T09:47:33;101022.91;;;11.88;50.34
7376;BME280;3728;42.266;24.944;2023-02-16T09:50:27;101021.53;;;12.01;50.31
7376;BME280;3728;42.266;24.944;2023-02-16T09:53:34;101015.09;;;12.22;49.38
7376;BME280;3728;42.266;24.944;2023-02-16T09:58:49;101012.13;;;12.62;48.43
7376;BME280;3728;42.266;24.944;2023-02-16T10:01:30;101011.41;;;12.85;46.99
7376;BME280;3728;42.266;24.944;2023-02-16T10:04:35;101003.84;;;12.50;48.22
7376;BME280;3728;42.266;24.944;2023-02-16T10:13:42;100993.50;;;12.87;47.49
7376;BME280;3728;42.266;24.944;2023-02-16T10:16:25;100991.16;;;13.10;46.46
7376;BME280;3728;42.266;24.944;2023-02-16T10:18:57;100986.66;;;13.15;46.19
7376;BME280;3728;42.266;24.944;2023-02-16T10:21:28;100984.91;;;12.77;47.81
7376;BME280;3728;42.266;24.944;2023-02-16T10:24:02;100980.09;;;12.84;47.95
7376;BME280;3728;42.266;24.944;2023-02-16T10:27:02;100983.59;;;13.50;44.84
7376;BME280;3728;42.266;24.944;2023-02-16T10:29:33;100979.78;;;13.38;46.51
7376;BME280;3728;42.266;24.944;2023-02-16T10:32:25;100969.97;;;13.43;46.47
7376;BME280;3728;42.266;24.944;2023-02-16T10:35:04;100973.06;;;13.88;44.42
7376;BME280;3728;42.266;24.944;2023-02-16T10:37:58;100969.06;;;14.09;43.63
7376;BME280;3728;42.266;24.944;2023-02-16T10:46:09;100963.78;;;14.09;45.13
7376;BME280;3728;42.266;24.944;2023-02-16T10:48:43;100957.22;;;14.44;42.84
7376;BME280;3728;42.266;24.944;2023-02-16T10:51:16;100953.72;;;14.62;42.10
7376;BME280;3728;42.266;24.944;2023-02-16T10:53:49;100950.84;;;14.45;42.77
7376;BME280;3728;42.266;24.944;2023-02-16T10:59:44;100943.38;;;14.92;41.03
7376;BME280;3728;42.266;24.944;2023-02-16T11:04:47;100933.72;;;14.74;42.46
7376;BME280;3728;42.266;24.944;2023-02-16T11:07:26;100929.19;;;14.48;42.28
7376;BME280;3728;42.266;24.944;2023-02-16T11:09:57;100920.50;;;14.47;43.25
7376;BME280;3728;42.266;24.944;2023-02-16T11:15:04;100920.19;;;15.30;40.93
7376;BME280;3728;42.266;24.944;2023-02-16T11:18:06;100916.97;;;15.69;39.93
7376;BME280;3728;42.266;24.944;2023-02-16T11:23:25;100899.13;;;15.74;40.00
7376;BME280;3728;42.266;24.944;2023-02-16T11:28:38;100891.53;;;15.73;38.98
7376;BME280;3728;42.266;24.944;2023-02-16T11:34:02;100882.25;;;16.06;38.77
7376;BME280;3728;42.266;24.944;2023-02-16T11:36:49;100892.31;;;16.57;37.07
7376;BME280;3728;42.266;24.944;2023-02-16T11:39:27;100878.97;;;16.01;37.84
7376;BME280;3728;42.266;24.944;2023-02-16T11:42:07;100876.06;;;15.66;38.47
7376;BME280;3728;42.266;24.944;2023-02-16T11:44:52;100879.47;;;16.11;38.14
7376;BME280;3728;42.266;24.944;2023-02-16T11:47:27;100878.97;;;16.62;35.97
7376;BME280;3728;42.266;24.944;2023-02-16T11:52:50;100869.88;;;17.20;36.35
7376;BME280;3728;42.266;24.944;2023-02-16T11:55:42;100878.66;;;17.54;35.98
7376;BME280;3728;42.266;24.944;2023-02-16T12:10:11;100848.31;;;18.44;34.09
7376;BME280;3728;42.266;24.944;2023-02-16T12:13:02;100846.63;;;18.40;33.62
7376;BME280;3728;42.266;24.944;2023-02-16T12:19:35;100826.34;;;18.73;33.52
7376;BME280;3728;42.266;24.944;2023-02-16T12:27:59;100820.28;;;19.14;31.74
7376;BME280;3728;42.266;24.944;2023-02-16T12:31:11;100814.19;;;19.67;31.94
7376;BME280;3728;42.266;24.944;2023-02-16T12:37:14;100800.56;;;20.37;29.53
7376;BME280;3728;42.266;24.944;2023-02-16T12:43:31;100802.78;;;20.99;27.59
7376;BME280;3728;42.266;24.944;2023-02-16T12:46:09;100801.50;;;20.81;28.10
7376;BME280;3728;42.266;24.944;2023-02-16T12:49:11;100800.06;;;20.84;28.49
7376;BME280;3728;42.266;24.944;2023-02-16T12:52:19;100788.69;;;20.99;28.03
7376;BME280;3728;42.266;24.944;2023-02-16T12:58:07;100781.78;;;21.97;28.07
7376;BME280;3728;42.266;24.944;2023-02-16T13:00:47;100777.38;;;22.55;27.22
7376;BME280;3728;42.266;24.944;2023-02-16T13:08:57;100769.56;;;23.00;27.09
7376;BME280;3728;42.266;24.944;2023-02-16T13:11:48;100773.38;;;23.37;26.34
7376;BME280;3728;42.266;24.944;2023-02-16T13:14:31;100769.22;;;23.40;26.81
7376;BME280;3728;42.266;24.944;2023-02-16T13:17:08;100761.31;;;23.69;25.47
7376;BME280;3728;42.266;24.944;2023-02-16T13:19:45;100758.63;;;23.69;26.03
7376;BME280;3728;42.266;24.944;2023-02-16T13:40:11;100742.09;;;24.09;24.98
7376;BME280;3728;42.266;24.944;2023-02-16T13:45:30;100737.88;;;24.34;25.38
7376;BME280;3728;42.266;24.944;2023-02-16T13:48:00;100732.25;;;25.06;24.00
7376;BME280;3728;42.266;24.944;2023-02-16T13:50:31;100741.66;;;24.93;24.10
7376;BME280;3728;42.266;24.944;2023-02-16T13:53:17;100733.09;;;24.80;24.15
7376;BME280;3728;42.266;24.944;2023-02-16T13:55:46;100737.94;;;24.71;23.95
7376;BME280;3728;42.266;24.944;2023-02-16T14:00:46;100740.16;;;24.95;23.71
7376;BME280;3728;42.266;24.944;2023-02-16T14:05:45;100728.19;;;24.86;24.02
7376;BME280;3728;42.266;24.944;2023-02-16T14:08:22;100725.78;;;25.51;23.55
7376;BME280;3728;42.266;24.944;2023-02-16T14:16:06;100713.31;;;25.69;22.95
7376;BME280;3728;42.266;24.944;2023-02-16T14:18:47;100714.38;;;25.21;23.30
7376;BME280;3728;42.266;24.944;2023-02-16T14:21:40;100711.69;;;25.21;23.33
7376;BME280;3728;42.266;24.944;2023-02-16T14:27:00;100710.91;;;24.80;23.84
7376;BME280;3728;42.266;24.944;2023-02-16T14:29:54;100705.56;;;24.83;23.61
7376;BME280;3728;42.266;24.944;2023-02-16T14:32:27;100708.06;;;24.99;23.16
7376;BME280;3728;42.266;24.944;2023-02-16T14:35:12;100703.38;;;24.92;23.81
7376;BME280;3728;42.266;24.944;2023-02-16T14:40:37;100698.75;;;24.89;23.94
7376;BME280;3728;42.266;24.944;2023-02-16T14:56:44;100693.31;;;24.82;23.74
7376;BME280;3728;42.266;24.944;2023-02-16T14:59:25;100690.34;;;24.91;23.87
7376;BME280;3728;42.266;24.944;2023-02-16T15:05:18;100688.38;;;24.84;24.20
7376;BME280;3728;42.266;24.944;2023-02-16T15:07:51;100684.75;;;24.73;23.86
7376;BME280;3728;42.266;24.944;2023-02-16T15:10:30;100687.09;;;24.45;24.26
7376;BME280;3728;42.266;24.944;2023-02-16T15:12:58;100679.56;;;24.24;24.20
7376;BME280;3728;42.266;24.944;2023-02-16T15:15:49;100682.34;;;24.05;24.25
7376;BME280;3728;42.266;24.944;2023-02-16T15:18:39;100680.63;;;23.67;25.13
7376;BME280;3728;42.266;24.944;2023-02-16T15:21:20;100675.81;;;23.50;25.04
7376;BME280;3728;42.266;24.944;2023-02-16T15:23:52;100681.84;;;23.25;25.53
7376;BME280;3728;42.266;24.944;2023-02-16T15:28:58;100674.28;;;22.50;26.45
7376;BME280;3728;42.266;24.944;2023-02-16T15:31:47;100676.88;;;21.77;27.28
7376;BME280;3728;42.266;24.944;2023-02-16T15:34:26;100674.84;;;20.96;28.02
7376;BME280;3728;42.266;24.944;2023-02-16T15:37:00;100676.81;;;20.19;29.05
7376;BME280;3728;42.266;24.944;2023-02-16T15:39:33;100676.69;;;19.31;30.08
7376;BME280;3728;42.266;24.944;2023-02-16T15:42:26;100670.38;;;18.29;31.78
7376;BME280;3728;42.266;24.944;2023-02-16T15:44:57;100665.34;;;17.40;32.63
7376;BME280;3728;42.266;24.944;2023-02-16T15:47:27;100659.69;;;16.86;33.69
7376;BME280;3728;42.266;24.944;2023-02-16T15:49:55;100657.34;;;16.42;34.72
7376;BME280;3728;42.266;24.944;2023-02-16T15:52:34;100665.19;;;15.91;35.22
7376;BME280;3728;42.266;24.944;2023-02-16T15:55:05;100664.78;;;15.66;35.82
7376;BME280;3728;42.266;24.944;2023-02-16T15:57:37;100661.53;;;15.39;36.59
7376;BME280;3728;42.266;24.944;2023-02-16T16:00:30;100672.66;;;15.05;36.88
7376;BME280;3728;42.266;24.944;2023-02-16T16:02:59;100663.50;;;14.80;38.06
7376;BME280;3728;42.266;24.944;2023-02-16T16:05:30;100662.59;;;14.63;38.56
7376;BME280;3728;42.266;24.944;2023-02-16T16:08:02;100661.38;;;14.47;38.39
7376;BME280;3728;42.266;24.944;2023-02-16T16:10:33;100671.16;;;14.19;39.28
7376;BME280;3728;42.266;24.944;2023-02-16T16:13:10;100662.59;;;14.00;39.71
7376;BME280;3728;42.266;24.944;2023-02-16T16:15:43;100668.25;;;13.80;40.10
7376;BME280;3728;42.266;24.944;2023-02-16T16:18:47;100663.19;;;13.56;40.61
7376;BME280;3728;42.266;24.944;2023-02-16T16:21:24;100667.50;;;13.33;41.14
7376;BME280;3728;42.266;24.944;2023-02-16T16:24:08;100665.34;;;13.22;41.54